Strona główna
METAR-TAF:

METAR-TAF

Lotnisko :

Port lotniczy Curaçao

Curaçao, Antyle Holenderskie

Szerokość geograficzna: 12-12N, Długość geograficzna: 068-58W, wysokość: 9 m

Aktualna obserwacja pogody

Raport powstał 37 minut temu, godzina 06:00 UTC
Wiatr 13 kt od wschodnio-południowy wschód
Temperatura 26°C
Wilgotność 79%
Ciśnienie 1013 hPa
Widzialność 10 km lub więcej

METAR: TNCC 250600Z AUTO 11013KT 9999 NCD 26/22 Q1013 NOSIG

czas: 02:37 (06:37 UTC)

Prognoza

Prognoza ważna od 25 godzina 06 UTC do 26 godzina 06 UTC
Wiatr 12 kt od wschód
Widzialność 10 km lub więcej
Rozproszone chmury na wysokości 2000 ft

TAF: TNCC 2506/2606 10012KT 9999 SCT020

Obserwacja i prognoza pogody dla ponad 4000 lotnisk (raport METAR i TAF).

Dostępne stacje oznaczono żółtymi i czerwonymi punktami na mapie.

Najedź kursorem aby zobaczyć nazwę stacji.

Kliknij aby zobaczyć obserwacje i prognozy pogody.

Aby zmienić mapę: kliknij na zielony przycisk z czarnym krzyżykiem, aby powiększyć; na zielony przycisk z myślnikiem, aby pomniejszyć; na zielone strzałki, aby przejść do map sąsiednich.


METAR-TAF: